createdAt,value
2018-07-15T00:02:06.052Z,14.86
2018-07-15T00:04:34.252Z,14.84
2018-07-15T00:07:02.310Z,14.79
2018-07-15T00:09:30.331Z,14.75
2018-07-15T00:11:58.384Z,14.72
2018-07-15T00:14:26.447Z,14.67
2018-07-15T00:16:54.484Z,14.63
2018-07-15T00:19:22.511Z,14.61
2018-07-15T00:21:50.549Z,14.59
2018-07-15T00:24:18.583Z,14.56
2018-07-15T00:26:46.617Z,14.53
2018-07-15T00:29:14.649Z,14.48
2018-07-15T00:31:42.692Z,14.46
2018-07-15T00:34:10.709Z,14.43
2018-07-15T00:36:38.744Z,14.40
2018-07-15T00:39:07.141Z,14.36
2018-07-15T00:41:35.216Z,14.33
2018-07-15T00:44:03.473Z,14.32
2018-07-15T00:46:31.528Z,14.28
2018-07-15T00:48:59.583Z,14.26
2018-07-15T00:51:27.624Z,14.24
2018-07-15T00:53:55.813Z,14.21
2018-07-15T00:56:23.897Z,14.18
2018-07-15T00:58:51.936Z,14.15
2018-07-15T01:01:19.968Z,14.13
2018-07-15T01:03:48.026Z,14.09
2018-07-15T01:06:16.092Z,14.05
2018-07-15T01:08:44.134Z,14.00
2018-07-15T01:11:12.169Z,13.98
2018-07-15T01:13:40.200Z,13.94
2018-07-15T01:16:08.253Z,13.91
2018-07-15T01:18:36.404Z,13.87
2018-07-15T01:21:04.469Z,13.86
2018-07-15T01:23:32.525Z,13.84
2018-07-15T01:26:00.573Z,13.83
2018-07-15T01:28:28.634Z,13.82
2018-07-15T01:30:56.664Z,13.80
2018-07-15T01:33:24.809Z,13.79
2018-07-15T01:35:52.833Z,13.77
2018-07-15T01:38:20.872Z,13.75
2018-07-15T01:40:48.912Z,13.73
2018-07-15T01:43:16.954Z,13.71
2018-07-15T01:45:44.992Z,13.70
2018-07-15T01:48:13.061Z,13.68
2018-07-15T01:50:41.086Z,13.67
2018-07-15T01:53:09.128Z,13.64
2018-07-15T01:55:45.240Z,13.61
2018-07-15T01:58:13.276Z,13.56
2018-07-15T02:00:41.342Z,13.55
2018-07-15T02:03:09.369Z,13.52
2018-07-15T02:05:37.418Z,13.51
2018-07-15T02:08:05.707Z,13.48
2018-07-15T02:10:33.752Z,13.45
2018-07-15T02:13:01.811Z,13.41
2018-07-15T02:15:29.851Z,13.37
2018-07-15T02:17:57.889Z,13.34
2018-07-15T02:20:26.104Z,13.31
2018-07-15T02:22:54.139Z,13.29
2018-07-15T02:25:22.165Z,13.29
2018-07-15T02:27:50.207Z,13.28
2018-07-15T02:30:18.232Z,13.27
2018-07-15T02:32:46.273Z,13.24
2018-07-15T02:35:14.344Z,13.24
2018-07-15T02:37:42.410Z,13.21
2018-07-15T02:40:10.428Z,13.20
2018-07-15T02:42:38.495Z,13.19
2018-07-15T02:45:06.545Z,13.18
2018-07-15T02:47:34.572Z,13.18
2018-07-15T02:50:02.623Z,13.16
2018-07-15T02:52:30.680Z,13.14
2018-07-15T02:54:58.716Z,13.12
2018-07-15T02:57:26.780Z,13.10
2018-07-15T02:59:54.864Z,13.07
2018-07-15T03:02:22.911Z,13.05
2018-07-15T03:04:50.967Z,13.03
2018-07-15T03:07:18.993Z,13.01
2018-07-15T03:09:47.033Z,13.02
2018-07-15T03:12:15.062Z,13.02
2018-07-15T03:14:43.104Z,13.00
2018-07-15T03:17:11.161Z,13.00
2018-07-15T03:19:39.184Z,12.99
2018-07-15T03:22:07.726Z,12.99
2018-07-15T03:24:35.780Z,12.96
2018-07-15T03:27:03.800Z,12.92
2018-07-15T03:29:31.833Z,12.89
2018-07-15T03:31:59.862Z,12.87
2018-07-15T03:34:27.896Z,12.87
2018-07-15T03:36:55.928Z,12.85
2018-07-15T03:39:23.983Z,12.85
2018-07-15T03:41:52.012Z,12.85
2018-07-15T03:44:20.049Z,12.87
2018-07-15T03:46:48.131Z,12.87
2018-07-15T03:49:16.176Z,12.89
2018-07-15T03:51:44.218Z,12.91
2018-07-15T03:54:12.261Z,12.90
2018-07-15T03:56:40.307Z,12.91
2018-07-15T03:59:08.362Z,12.91
2018-07-15T04:01:36.396Z,12.91
2018-07-15T04:04:04.456Z,12.92
2018-07-15T04:06:32.501Z,12.94
2018-07-15T04:09:00.622Z,12.95
2018-07-15T04:11:28.588Z,12.98
2018-07-15T04:13:56.648Z,13.01
2018-07-15T04:16:24.673Z,13.05
2018-07-15T04:18:52.712Z,13.07
2018-07-15T04:21:20.748Z,13.11
2018-07-15T04:23:48.789Z,13.14
2018-07-15T04:26:16.831Z,13.19
2018-07-15T04:28:44.864Z,13.22
2018-07-15T04:31:12.891Z,13.28
2018-07-15T04:33:40.959Z,13.34
2018-07-15T04:36:08.997Z,13.38
2018-07-15T04:38:37.028Z,13.45
2018-07-15T04:41:05.056Z,13.51
2018-07-15T04:43:33.112Z,13.55
2018-07-15T04:46:01.136Z,13.61
2018-07-15T04:48:29.164Z,13.68
2018-07-15T04:50:57.208Z,13.76
2018-07-15T04:53:25.227Z,13.83
2018-07-15T04:55:53.276Z,13.91
2018-07-15T04:58:21.336Z,14.01
2018-07-15T05:00:49.388Z,14.11
2018-07-15T05:03:17.472Z,14.19
2018-07-15T05:05:45.519Z,14.30
2018-07-15T05:08:13.568Z,14.41
2018-07-15T05:10:41.600Z,14.52
2018-07-15T05:13:09.628Z,14.64
2018-07-15T05:15:37.663Z,14.76
2018-07-15T05:18:05.692Z,14.88
2018-07-15T05:20:33.733Z,15.03
2018-07-15T05:23:01.757Z,15.16
2018-07-15T05:25:29.824Z,15.28
2018-07-15T05:27:57.856Z,15.41
2018-07-15T05:30:25.916Z,15.53
2018-07-15T05:32:53.956Z,15.64
2018-07-15T05:35:21.994Z,15.77
2018-07-15T05:37:50.015Z,15.88
2018-07-15T05:40:18.052Z,15.98
2018-07-15T05:42:46.099Z,16.09
2018-07-15T05:45:14.152Z,16.19
2018-07-15T05:47:42.241Z,16.29
2018-07-15T05:50:10.281Z,16.39
2018-07-15T05:52:38.312Z,16.46
2018-07-15T05:55:06.392Z,16.53
2018-07-15T05:57:34.443Z,16.62
2018-07-15T06:00:02.492Z,16.71
2018-07-15T06:02:30.512Z,16.77
2018-07-15T06:04:58.552Z,16.86
2018-07-15T06:07:26.583Z,16.93
2018-07-15T06:09:54.632Z,17.05
2018-07-15T06:12:22.664Z,17.10
2018-07-15T06:14:50.701Z,17.18
2018-07-15T06:17:18.752Z,17.30
2018-07-15T06:19:46.784Z,17.41
2018-07-15T06:22:14.923Z,17.50
2018-07-15T06:24:42.964Z,17.55
2018-07-15T06:27:11.008Z,17.70
2018-07-15T06:29:39.086Z,17.83
2018-07-15T06:32:07.154Z,17.96
2018-07-15T06:34:35.181Z,18.05
2018-07-15T06:37:03.325Z,18.17
2018-07-15T06:39:31.347Z,18.29
2018-07-15T06:41:59.388Z,18.42
2018-07-15T06:44:27.421Z,18.44
2018-07-15T06:46:55.464Z,18.58
2018-07-15T06:49:23.550Z,18.74
2018-07-15T06:51:51.532Z,18.86
2018-07-15T06:54:19.576Z,19.00
2018-07-15T06:56:47.608Z,19.19
2018-07-15T06:59:15.648Z,19.38
2018-07-15T07:01:43.687Z,19.54
2018-07-15T07:04:11.739Z,19.71
2018-07-15T07:06:39.772Z,19.85
2018-07-15T07:09:08.245Z,20.00
2018-07-15T07:11:37.220Z,20.04
2018-07-15T07:14:05.495Z,20.17
2018-07-15T07:16:33.712Z,20.29
2018-07-15T07:19:01.761Z,20.42
2018-07-15T07:21:29.832Z,20.53
2018-07-15T07:23:57.872Z,20.67
2018-07-15T07:26:25.957Z,20.78
2018-07-15T07:28:54.055Z,20.89
2018-07-15T07:31:22.098Z,21.03
2018-07-15T07:33:50.137Z,21.12
2018-07-15T07:36:18.228Z,21.36
2018-07-15T07:38:46.360Z,21.62
2018-07-15T07:41:14.426Z,21.86
2018-07-15T07:43:42.420Z,22.10
2018-07-15T07:46:10.493Z,22.22
2018-07-15T07:48:38.536Z,22.35
2018-07-15T07:51:06.587Z,22.48
2018-07-15T07:53:34.611Z,22.54
2018-07-15T07:56:02.699Z,22.50
2018-07-15T07:58:30.736Z,22.46
2018-07-15T08:00:58.804Z,22.52
2018-07-15T08:03:26.844Z,22.69
2018-07-15T08:05:54.920Z,22.92
2018-07-15T08:08:22.952Z,23.25
2018-07-15T08:10:51.000Z,23.63
2018-07-15T08:13:19.056Z,23.99
2018-07-15T08:15:47.101Z,24.30
2018-07-15T08:18:15.148Z,24.52
2018-07-15T08:20:43.231Z,24.39
2018-07-15T08:23:11.320Z,24.45
2018-07-15T08:25:39.352Z,24.49
2018-07-15T08:28:07.502Z,24.61
2018-07-15T08:30:46.811Z,24.67
2018-07-15T08:33:14.877Z,24.92
2018-07-15T08:35:42.955Z,24.96
2018-07-15T08:38:11.040Z,25.20
2018-07-15T08:40:39.182Z,25.39
2018-07-15T08:43:07.231Z,25.08
2018-07-15T08:45:35.269Z,24.85
2018-07-15T08:48:03.347Z,24.55
2018-07-15T08:50:31.395Z,24.13
2018-07-15T08:52:59.472Z,24.12
2018-07-15T08:55:27.507Z,24.52
2018-07-15T08:57:55.573Z,24.92
2018-07-15T09:00:23.632Z,25.48
2018-07-15T09:02:51.696Z,25.89
2018-07-15T09:05:19.740Z,25.98
2018-07-15T09:07:47.796Z,26.36
2018-07-15T09:10:15.851Z,26.63
2018-07-15T09:12:43.946Z,26.52
2018-07-15T09:15:11.933Z,26.30
2018-07-15T09:17:39.991Z,26.08
2018-07-15T09:20:08.041Z,26.28
2018-07-15T09:22:36.088Z,26.49
2018-07-15T09:25:04.151Z,26.39
2018-07-15T09:27:32.208Z,26.48
2018-07-15T09:30:00.271Z,26.44
2018-07-15T09:32:28.319Z,26.71
2018-07-15T09:34:56.376Z,27.08
2018-07-15T09:37:24.416Z,27.27
2018-07-15T09:39:52.447Z,27.65
2018-07-15T09:42:20.492Z,27.96
2018-07-15T09:44:48.548Z,28.31
2018-07-15T09:47:16.639Z,28.65
2018-07-15T09:49:44.700Z,28.77
2018-07-15T09:52:12.750Z,29.20
2018-07-15T09:54:40.819Z,29.25
2018-07-15T09:57:08.878Z,29.56
2018-07-15T09:59:36.916Z,29.66
2018-07-15T10:02:04.986Z,29.33
2018-07-15T10:04:33.050Z,29.37
2018-07-15T10:07:01.093Z,29.55
2018-07-15T10:09:29.144Z,29.60
2018-07-15T10:11:57.203Z,29.34
2018-07-15T10:14:25.240Z,29.05
2018-07-15T10:16:53.303Z,28.77
2018-07-15T10:19:21.374Z,28.81
2018-07-15T10:21:49.454Z,29.06
2018-07-15T10:24:17.515Z,28.97
2018-07-15T10:26:45.639Z,28.88
2018-07-15T10:29:13.684Z,28.59
2018-07-15T10:31:41.724Z,28.39
2018-07-15T10:34:09.828Z,28.42
2018-07-15T10:36:37.879Z,28.40
2018-07-15T10:39:06.216Z,28.48
2018-07-15T10:41:34.184Z,28.45
2018-07-15T10:44:02.262Z,28.31
2018-07-15T10:46:30.288Z,28.30
2018-07-15T10:48:58.367Z,28.56
2018-07-15T10:51:26.436Z,28.85
2018-07-15T10:53:54.483Z,28.73
2018-07-15T10:56:22.525Z,28.64
2018-07-15T10:58:50.617Z,28.54
2018-07-15T11:01:18.663Z,28.42
2018-07-15T11:03:46.735Z,28.32
2018-07-15T11:06:14.828Z,28.08
2018-07-15T11:08:42.815Z,27.89
2018-07-15T11:11:10.864Z,27.81
2018-07-15T11:13:38.935Z,27.75
2018-07-15T11:16:06.992Z,27.87
2018-07-15T11:18:35.053Z,28.12
2018-07-15T11:21:03.095Z,28.29
2018-07-15T11:23:31.164Z,28.58
2018-07-15T11:25:59.201Z,28.65
2018-07-15T11:28:27.245Z,29.14
2018-07-15T11:30:55.399Z,29.61
2018-07-15T11:33:23.348Z,29.87
2018-07-15T11:35:51.388Z,29.70
2018-07-15T11:38:19.453Z,29.51
2018-07-15T11:40:47.503Z,29.47
2018-07-15T11:43:15.565Z,29.54
2018-07-15T11:45:43.637Z,29.37
2018-07-15T11:48:11.727Z,29.07
2018-07-15T11:50:39.724Z,29.32
2018-07-15T11:53:07.787Z,29.27
2018-07-15T11:55:35.855Z,29.28
2018-07-15T11:58:03.885Z,29.69
2018-07-15T12:00:31.936Z,30.03
2018-07-15T12:03:00.005Z,30.55
2018-07-15T12:05:28.090Z,31.12
2018-07-15T12:07:56.125Z,31.42
2018-07-15T12:10:24.177Z,31.38
2018-07-15T12:12:52.228Z,31.02
2018-07-15T12:15:20.275Z,30.56
2018-07-15T12:17:48.334Z,30.20
2018-07-15T12:20:16.403Z,29.94
2018-07-15T12:22:44.448Z,29.81
2018-07-15T12:25:12.491Z,30.22
2018-07-15T12:27:40.525Z,30.71
2018-07-15T12:30:08.595Z,30.90
2018-07-15T12:32:36.656Z,31.29
2018-07-15T12:35:04.775Z,31.29
2018-07-15T12:37:32.805Z,31.48
2018-07-15T12:40:00.866Z,31.79
2018-07-15T12:42:28.908Z,31.77
2018-07-15T12:44:56.964Z,31.50
2018-07-15T12:47:25.013Z,31.54
2018-07-15T12:49:53.081Z,31.34
2018-07-15T12:52:21.133Z,31.14
2018-07-15T12:54:49.172Z,30.93
2018-07-15T12:57:17.240Z,31.07
2018-07-15T12:59:45.312Z,31.07
2018-07-15T13:02:13.372Z,31.48
2018-07-15T13:04:41.440Z,31.79
2018-07-15T13:07:09.516Z,32.12
2018-07-15T13:09:37.576Z,32.38
2018-07-15T13:12:05.637Z,32.56
2018-07-15T13:14:33.739Z,32.63
2018-07-15T13:17:01.777Z,32.30
2018-07-15T13:19:29.823Z,31.86
2018-07-15T13:21:57.876Z,31.46
2018-07-15T13:24:25.956Z,30.97
2018-07-15T13:26:54.026Z,30.52
2018-07-15T13:29:22.071Z,30.34
2018-07-15T13:31:50.112Z,30.18
2018-07-15T13:34:18.180Z,30.00
2018-07-15T13:36:46.267Z,29.98
2018-07-15T13:39:14.264Z,30.26
2018-07-15T13:41:42.375Z,30.56
2018-07-15T13:44:10.360Z,31.02
2018-07-15T13:46:38.452Z,31.40
2018-07-15T13:49:06.721Z,31.80
2018-07-15T13:51:34.777Z,32.21
2018-07-15T13:54:02.820Z,32.47
2018-07-15T13:56:30.881Z,32.61
2018-07-15T13:58:58.940Z,32.64
2018-07-15T14:01:26.992Z,32.76
2018-07-15T14:03:55.044Z,32.81
2018-07-15T14:06:23.104Z,32.92
2018-07-15T14:08:51.499Z,33.01
2018-07-15T14:11:19.541Z,33.16
2018-07-15T14:13:47.584Z,33.38
2018-07-15T14:16:15.645Z,33.40
2018-07-15T14:18:43.727Z,33.42
2018-07-15T14:21:11.784Z,33.47
2018-07-15T14:23:39.834Z,33.58
2018-07-15T14:26:07.888Z,33.72
2018-07-15T14:28:35.944Z,33.71
2018-07-15T14:31:04.047Z,33.60
2018-07-15T14:33:32.120Z,33.54
2018-07-15T14:36:00.165Z,33.59
2018-07-15T14:38:28.226Z,33.56
2018-07-15T14:40:56.276Z,33.54
2018-07-15T14:43:24.334Z,33.55
2018-07-15T14:45:52.371Z,33.54
2018-07-15T14:48:20.464Z,33.59
2018-07-15T14:50:48.559Z,33.75
2018-07-15T14:53:16.592Z,33.88
2018-07-15T14:55:44.677Z,33.73
2018-07-15T14:58:12.717Z,33.47
2018-07-15T15:00:40.781Z,33.14
2018-07-15T15:03:08.888Z,32.67
2018-07-15T15:05:36.937Z,32.37
2018-07-15T15:08:05.052Z,32.10
2018-07-15T15:10:33.335Z,31.82
2018-07-15T15:13:02.139Z,31.44
2018-07-15T15:15:30.192Z,31.40
2018-07-15T15:17:58.248Z,31.50
2018-07-15T15:20:26.340Z,31.53
2018-07-15T15:22:54.390Z,31.76
2018-07-15T15:25:22.485Z,31.82
2018-07-15T15:27:50.532Z,31.64
2018-07-15T15:30:18.578Z,31.53
2018-07-15T15:32:46.656Z,31.34
2018-07-15T15:35:14.722Z,30.95
2018-07-15T15:37:42.796Z,30.70
2018-07-15T15:40:10.931Z,30.54
2018-07-15T15:42:38.976Z,30.43
2018-07-15T15:45:07.305Z,30.30
2018-07-15T15:47:38.284Z,30.21
2018-07-15T15:50:12.820Z,30.12
2018-07-15T15:52:40.892Z,30.03
2018-07-15T15:55:08.935Z,29.97
2018-07-15T15:57:36.980Z,30.03
2018-07-15T16:00:05.331Z,30.19
2018-07-15T16:02:33.364Z,30.33
2018-07-15T16:05:01.424Z,30.37
2018-07-15T16:07:29.475Z,30.41
2018-07-15T16:09:57.524Z,30.41
2018-07-15T16:12:25.576Z,30.39
2018-07-15T16:14:53.632Z,30.44
2018-07-15T16:17:21.687Z,30.39
2018-07-15T16:19:49.741Z,30.33
2018-07-15T16:22:17.792Z,30.13
2018-07-15T16:24:45.832Z,30.12
2018-07-15T16:27:13.928Z,30.07
2018-07-15T16:29:41.979Z,29.93
2018-07-15T16:32:10.021Z,29.93
2018-07-15T16:34:38.075Z,29.81
2018-07-15T16:37:06.114Z,29.75
2018-07-15T16:39:34.181Z,29.77
2018-07-15T16:42:02.268Z,29.70
2018-07-15T16:44:30.323Z,29.70
2018-07-15T16:46:58.383Z,29.69
2018-07-15T16:49:26.424Z,29.69
2018-07-15T16:51:54.471Z,29.71
2018-07-15T16:54:22.552Z,29.60
2018-07-15T16:56:50.881Z,29.49
2018-07-15T16:59:18.963Z,29.38
2018-07-15T17:01:47.011Z,29.29
2018-07-15T17:04:15.054Z,29.18
2018-07-15T17:06:43.108Z,29.03
2018-07-15T17:09:11.156Z,28.98
2018-07-15T17:11:39.191Z,28.88
2018-07-15T17:14:07.336Z,28.68
2018-07-15T17:16:35.321Z,28.57
2018-07-15T17:19:03.371Z,28.56
2018-07-15T17:21:31.412Z,28.51
2018-07-15T17:23:59.463Z,28.42
2018-07-15T17:26:27.519Z,28.43
2018-07-15T17:28:55.560Z,28.45
2018-07-15T17:31:23.628Z,28.46
2018-07-15T17:33:51.684Z,28.41
2018-07-15T17:36:19.715Z,28.33
2018-07-15T17:38:47.757Z,28.32
2018-07-15T17:41:15.788Z,28.35
2018-07-15T17:43:44.243Z,28.38
2018-07-15T17:46:12.339Z,28.38
2018-07-15T17:48:40.416Z,28.31
2018-07-15T17:51:08.479Z,28.23
2018-07-15T17:53:37.024Z,28.18
2018-07-15T17:56:05.172Z,28.12
2018-07-15T17:58:33.261Z,28.07
2018-07-15T18:01:01.301Z,27.84
2018-07-15T18:03:29.376Z,27.64
2018-07-15T18:05:57.444Z,27.52
2018-07-15T18:08:25.477Z,27.58
2018-07-15T18:10:53.513Z,27.63
2018-07-15T18:13:21.579Z,27.66
2018-07-15T18:15:49.612Z,27.67
2018-07-15T18:18:17.672Z,27.67
2018-07-15T18:20:45.796Z,27.61
2018-07-15T18:23:13.818Z,27.56
2018-07-15T18:25:41.849Z,27.55
2018-07-15T18:28:09.920Z,27.53
2018-07-15T18:30:37.957Z,27.46
2018-07-15T18:33:06.056Z,27.34
2018-07-15T18:35:34.108Z,27.26
2018-07-15T18:38:02.188Z,27.21
2018-07-15T18:40:30.240Z,27.15
2018-07-15T18:42:58.316Z,27.09
2018-07-15T18:45:26.346Z,27.01
2018-07-15T18:47:54.480Z,26.95
2018-07-15T18:50:22.528Z,26.92
2018-07-15T18:52:50.593Z,26.87
2018-07-15T18:55:18.643Z,26.79
2018-07-15T18:57:46.711Z,26.71
2018-07-15T19:00:14.760Z,26.69
2018-07-15T19:02:42.809Z,26.62
2018-07-15T19:05:10.850Z,26.51
2018-07-15T19:07:38.928Z,26.46
2018-07-15T19:10:06.961Z,26.42
2018-07-15T19:12:35.023Z,26.42
2018-07-15T19:15:03.115Z,26.39
2018-07-15T19:17:31.160Z,26.34
2018-07-15T19:19:59.205Z,26.28
2018-07-15T19:22:27.244Z,26.19
2018-07-15T19:24:55.600Z,26.12
2018-07-15T19:27:23.640Z,26.06
2018-07-15T19:29:51.704Z,25.98
2018-07-15T19:32:19.736Z,25.92
2018-07-15T19:34:47.781Z,25.83
2018-07-15T19:37:15.820Z,25.74
2018-07-15T19:39:43.864Z,25.70
2018-07-15T19:42:11.904Z,25.65
2018-07-15T19:44:39.962Z,25.60
2018-07-15T19:47:07.996Z,25.53
2018-07-15T19:49:36.404Z,25.46
2018-07-15T19:52:04.469Z,25.34
2018-07-15T19:54:32.580Z,25.24
2018-07-15T19:57:00.671Z,25.13
2018-07-15T19:59:28.732Z,25.01
2018-07-15T20:01:56.781Z,24.89
2018-07-15T20:04:24.829Z,24.79
2018-07-15T20:06:52.915Z,24.68
2018-07-15T20:09:20.970Z,24.58
2018-07-15T20:11:49.015Z,24.52
2018-07-15T20:14:17.077Z,24.45
2018-07-15T20:16:45.127Z,24.40
2018-07-15T20:19:13.226Z,24.33
2018-07-15T20:21:41.357Z,24.26
2018-07-15T20:24:09.364Z,24.22
2018-07-15T20:26:37.423Z,24.14
2018-07-15T20:29:05.484Z,24.07
2018-07-15T20:31:33.536Z,24.00
2018-07-15T20:34:01.621Z,23.91
2018-07-15T20:36:29.680Z,23.81
2018-07-15T20:38:57.744Z,23.71
2018-07-15T20:41:25.792Z,23.62
2018-07-15T20:43:53.855Z,23.51
2018-07-15T20:46:21.921Z,23.41
2018-07-15T20:48:49.964Z,23.31
2018-07-15T20:51:18.028Z,23.20
2018-07-15T20:53:46.081Z,23.13
2018-07-15T20:56:14.159Z,23.01
2018-07-15T20:58:42.195Z,22.91
2018-07-15T21:01:10.249Z,22.80
2018-07-15T21:03:38.296Z,22.70
2018-07-15T21:06:07.140Z,22.61
2018-07-15T21:08:35.358Z,22.50
2018-07-15T21:11:03.414Z,22.41
2018-07-15T21:13:31.453Z,22.33
2018-07-15T21:15:59.492Z,22.24
2018-07-15T21:18:27.536Z,22.16
2018-07-15T21:20:55.589Z,22.07
2018-07-15T21:23:23.672Z,22.00
2018-07-15T21:25:51.717Z,21.95
2018-07-15T21:28:19.783Z,21.88
2018-07-15T21:30:47.831Z,21.80
2018-07-15T21:33:15.881Z,21.76
2018-07-15T21:35:43.960Z,21.71
2018-07-15T21:38:12.081Z,21.68
2018-07-15T21:40:40.188Z,21.64
2018-07-15T21:43:08.242Z,21.60
2018-07-15T21:45:36.326Z,21.57
2018-07-15T21:48:04.445Z,21.53
2018-07-15T21:50:32.516Z,21.48
2018-07-15T21:53:00.564Z,21.44
2018-07-15T21:55:28.755Z,21.38
2018-07-15T21:57:56.800Z,21.32
2018-07-15T22:00:24.869Z,21.24
2018-07-15T22:02:53.030Z,21.15
2018-07-15T22:05:21.080Z,21.08
2018-07-15T22:08:00.688Z,21.03
2018-07-15T22:10:36.718Z,20.99
2018-07-15T22:13:04.748Z,20.93
2018-07-15T22:15:32.800Z,20.87
2018-07-15T22:18:00.848Z,20.84
2018-07-15T22:20:28.892Z,20.79
2018-07-15T22:22:56.993Z,20.78
2018-07-15T22:25:25.092Z,20.75
2018-07-15T22:27:53.147Z,20.72
2018-07-15T22:30:21.219Z,20.71
2018-07-15T22:32:49.243Z,20.70
2018-07-15T22:35:17.296Z,20.66
2018-07-15T22:37:45.343Z,20.63
2018-07-15T22:40:13.419Z,20.59
2018-07-15T22:42:41.456Z,20.54
2018-07-15T22:45:09.528Z,20.49
2018-07-15T22:47:37.609Z,20.45
2018-07-15T22:50:05.648Z,20.39
2018-07-15T22:52:33.700Z,20.35
2018-07-15T22:55:01.868Z,20.30
2018-07-15T22:57:29.905Z,20.25
2018-07-15T22:59:57.944Z,20.22
2018-07-15T23:02:25.991Z,20.15
2018-07-15T23:06:03.070Z,20.07
2018-07-15T23:08:32.212Z,19.95
2018-07-15T23:11:00.272Z,19.88
2018-07-15T23:13:28.344Z,19.80
2018-07-15T23:15:56.392Z,19.72
2018-07-15T23:18:24.450Z,19.66
2018-07-15T23:20:52.673Z,19.61
2018-07-15T23:23:20.742Z,19.57
2018-07-15T23:25:48.812Z,19.49
2018-07-15T23:28:17.604Z,19.43
2018-07-15T23:30:46.083Z,19.39
2018-07-15T23:33:14.200Z,19.34
2018-07-15T23:35:42.233Z,19.31
2018-07-15T23:38:10.263Z,19.27
2018-07-15T23:40:38.300Z,19.23
2018-07-15T23:43:06.339Z,19.16
2018-07-15T23:45:35.209Z,19.09
2018-07-15T23:48:03.250Z,19.05
2018-07-15T23:50:31.283Z,19.02
2018-07-15T23:52:59.355Z,18.98
2018-07-15T23:55:27.397Z,18.96
2018-07-15T23:57:55.564Z,18.90
